createdAt,value
2017-09-05T00:01:55.281Z,66.90
2017-09-05T00:04:24.657Z,66.90
2017-09-05T00:06:53.706Z,66.90
2017-09-05T00:09:25.090Z,66.70
2017-09-05T00:12:09.428Z,66.50
2017-09-05T00:14:43.968Z,66.40
2017-09-05T00:17:19.651Z,66.40
2017-09-05T00:19:50.446Z,66.40
2017-09-05T00:22:25.485Z,66.60
2017-09-05T00:24:54.888Z,66.50
2017-09-05T00:27:23.881Z,66.50
2017-09-05T00:29:52.976Z,66.40
2017-09-05T00:32:22.025Z,66.10
2017-09-05T00:34:51.865Z,66.20
2017-09-05T00:37:22.112Z,66.10
2017-09-05T00:39:51.924Z,66.20
2017-09-05T00:42:21.834Z,66.20
2017-09-05T00:44:50.734Z,66.20
2017-09-05T00:47:19.751Z,66.20
2017-09-05T00:49:48.924Z,66.20
2017-09-05T00:52:17.807Z,66.30
2017-09-05T00:54:48.223Z,66.40
2017-09-05T00:57:18.456Z,66.10
2017-09-05T00:59:47.758Z,65.90
2017-09-05T01:02:17.235Z,65.70
2017-09-05T01:04:46.360Z,65.70
2017-09-05T01:07:15.476Z,66.00
2017-09-05T01:09:44.603Z,66.20
2017-09-05T01:12:13.645Z,66.10
2017-09-05T01:14:42.671Z,66.00
2017-09-05T01:17:12.736Z,66.00
2017-09-05T01:19:41.856Z,65.90
2017-09-05T01:22:10.952Z,65.80
2017-09-05T01:24:39.910Z,65.90
2017-09-05T01:27:09.493Z,66.10
2017-09-05T01:29:39.464Z,66.10
2017-09-05T01:32:08.537Z,66.20
2017-09-05T01:34:37.618Z,66.30
2017-09-05T01:37:06.549Z,66.40
2017-09-05T01:39:36.283Z,66.50
2017-09-05T01:42:05.413Z,66.50
2017-09-05T01:44:34.462Z,66.30
2017-09-05T01:47:03.342Z,66.20
2017-09-05T01:49:33.059Z,66.20
2017-09-05T01:52:03.041Z,66.30
2017-09-05T01:54:32.680Z,66.20
2017-09-05T01:57:01.774Z,66.30
2017-09-05T01:59:30.769Z,66.50
2017-09-05T02:01:59.557Z,66.60
2017-09-05T02:04:28.346Z,66.70
2017-09-05T02:06:57.234Z,66.70
2017-09-05T02:09:26.946Z,66.60
2017-09-05T02:11:56.040Z,66.70
2017-09-05T02:14:25.757Z,66.80
2017-09-05T02:16:54.696Z,66.80
2017-09-05T02:19:23.741Z,66.80
2017-09-05T02:21:52.718Z,66.80
2017-09-05T02:24:21.725Z,66.90
2017-09-05T02:26:50.624Z,66.80
2017-09-05T02:29:19.679Z,66.80
2017-09-05T02:31:48.603Z,66.70
2017-09-05T02:34:17.496Z,66.60
2017-09-05T02:36:46.384Z,66.80
2017-09-05T02:39:15.356Z,67.00
2017-09-05T02:41:44.738Z,67.00
2017-09-05T02:44:13.470Z,67.00
2017-09-05T02:46:42.361Z,67.30
2017-09-05T02:49:11.351Z,67.70
2017-09-05T02:51:40.348Z,67.80
2017-09-05T02:54:09.240Z,66.70
2017-09-05T02:56:38.181Z,66.70
2017-09-05T02:59:07.018Z,66.90
2017-09-05T03:01:35.909Z,66.70
2017-09-05T03:04:04.881Z,66.60
2017-09-05T03:06:33.980Z,66.60
2017-09-05T03:09:05.449Z,66.50
2017-09-05T03:11:34.340Z,66.60
2017-09-05T03:14:03.232Z,66.30
2017-09-05T03:16:33.148Z,66.40
2017-09-05T03:19:02.038Z,66.50
2017-09-05T03:21:30.888Z,66.60
2017-09-05T03:23:59.854Z,66.90
2017-09-05T03:26:29.121Z,66.90
2017-09-05T03:28:58.014Z,66.80
2017-09-05T03:31:27.082Z,66.90
2017-09-05T03:33:56.104Z,66.90
2017-09-05T03:36:24.991Z,66.80
2017-09-05T03:38:53.782Z,66.90
2017-09-05T03:41:22.768Z,66.80
2017-09-05T03:43:51.564Z,66.60
2017-09-05T03:46:20.660Z,66.80
2017-09-05T03:48:49.550Z,66.60
2017-09-05T03:51:18.557Z,66.40
2017-09-05T03:53:47.334Z,66.60
2017-09-05T03:56:16.223Z,66.70
2017-09-05T03:58:45.370Z,66.70
2017-09-05T04:01:14.313Z,66.60
2017-09-05T04:03:43.231Z,66.60
2017-09-05T04:06:12.005Z,66.80
2017-09-05T04:08:40.894Z,66.90
2017-09-05T04:11:09.775Z,66.70
2017-09-05T04:13:38.875Z,66.80
2017-09-05T04:16:07.786Z,66.90
2017-09-05T04:18:36.884Z,66.70
2017-09-05T04:21:06.579Z,66.70
2017-09-05T04:23:35.616Z,66.50
2017-09-05T04:26:04.582Z,66.30
2017-09-05T04:28:33.459Z,66.20
2017-09-05T04:31:02.338Z,66.30
2017-09-05T04:33:31.444Z,66.00
2017-09-05T04:36:00.279Z,66.40
2017-09-05T04:38:29.214Z,66.30
2017-09-05T04:40:58.378Z,66.00
2017-09-05T04:43:27.307Z,66.10
2017-09-05T04:45:56.404Z,66.40
2017-09-05T04:48:25.436Z,67.00
2017-09-05T04:50:54.488Z,66.50
2017-09-05T04:53:24.198Z,66.70
2017-09-05T04:55:52.990Z,66.60
2017-09-05T04:58:21.878Z,66.60
2017-09-05T05:00:50.974Z,66.60
2017-09-05T05:03:19.865Z,66.50
2017-09-05T05:05:48.961Z,66.50
2017-09-05T05:08:18.061Z,66.40
2017-09-05T05:10:46.959Z,66.30
2017-09-05T05:13:15.842Z,66.20
2017-09-05T05:15:44.732Z,66.20
2017-09-05T05:18:13.658Z,65.90
2017-09-05T05:20:43.741Z,66.00
2017-09-05T05:23:12.637Z,65.80
2017-09-05T05:25:41.737Z,65.70
2017-09-05T05:28:10.619Z,65.90
2017-09-05T05:30:39.509Z,65.70
2017-09-05T05:33:09.645Z,65.70
2017-09-05T05:35:38.847Z,65.80
2017-09-05T05:38:07.719Z,66.20
2017-09-05T05:40:37.530Z,65.70
2017-09-05T05:43:06.322Z,65.60
2017-09-05T05:45:35.431Z,65.90
2017-09-05T05:48:04.308Z,65.30
2017-09-05T05:50:33.218Z,65.70
2017-09-05T05:53:02.295Z,65.50
2017-09-05T05:55:32.209Z,65.60
2017-09-05T05:58:01.118Z,65.60
2017-09-05T06:00:30.420Z,65.40
2017-09-05T06:02:59.190Z,65.30
2017-09-05T06:05:28.097Z,65.20
2017-09-05T06:07:57.151Z,65.20
2017-09-05T06:10:26.066Z,65.10
2017-09-05T06:12:54.987Z,65.90
2017-09-05T06:15:23.851Z,65.20
2017-09-05T06:17:54.175Z,65.00
2017-09-05T06:20:23.176Z,64.70
2017-09-05T06:22:52.162Z,64.00
2017-09-05T06:25:21.260Z,64.00
2017-09-05T06:27:50.045Z,64.20
2017-09-05T06:30:18.937Z,64.10
2017-09-05T06:32:47.993Z,64.00
2017-09-05T06:35:16.824Z,63.80
2017-09-05T06:37:45.722Z,64.00
2017-09-05T06:40:14.801Z,63.80
2017-09-05T06:42:43.558Z,63.60
2017-09-05T06:45:12.301Z,63.50
2017-09-05T06:47:41.276Z,63.40
2017-09-05T06:50:10.378Z,63.30
2017-09-05T06:52:39.468Z,62.80
2017-09-05T06:55:08.563Z,62.80
2017-09-05T06:57:37.880Z,62.30
2017-09-05T07:00:07.014Z,62.20
2017-09-05T07:02:35.888Z,62.10
2017-09-05T07:05:04.910Z,61.80
2017-09-05T07:07:33.944Z,61.70
2017-09-05T07:10:03.247Z,61.20
2017-09-05T07:12:33.317Z,61.60
2017-09-05T07:15:02.496Z,60.60
2017-09-05T07:17:31.450Z,60.00
2017-09-05T07:20:00.955Z,60.00
2017-09-05T07:22:29.874Z,59.20
2017-09-05T07:24:58.742Z,58.80
2017-09-05T07:27:28.174Z,56.90
2017-09-05T07:29:57.546Z,54.10
2017-09-05T07:32:26.653Z,52.00
2017-09-05T07:34:55.683Z,50.30
2017-09-05T07:37:25.448Z,49.50
2017-09-05T07:39:55.361Z,49.10
2017-09-05T07:42:24.271Z,47.40
2017-09-05T07:44:53.353Z,46.30
2017-09-05T07:47:22.447Z,45.60
2017-09-05T07:49:51.482Z,44.60
2017-09-05T07:52:20.442Z,45.00
2017-09-05T07:54:49.794Z,45.50
2017-09-05T07:57:18.840Z,46.30
2017-09-05T07:59:47.928Z,45.30
2017-09-05T08:02:17.195Z,45.50
2017-09-05T08:04:46.313Z,45.30
2017-09-05T08:07:15.212Z,46.10
2017-09-05T08:09:44.309Z,46.40
2017-09-05T08:12:13.464Z,45.10
2017-09-05T08:14:43.441Z,45.30
2017-09-05T08:17:12.654Z,42.40
2017-09-05T08:19:41.558Z,39.60
2017-09-05T08:22:10.403Z,38.00
2017-09-05T08:24:39.294Z,36.70
2017-09-05T08:27:08.392Z,37.70
2017-09-05T08:29:37.795Z,38.70
2017-09-05T08:32:07.132Z,40.30
2017-09-05T08:34:36.721Z,40.40
2017-09-05T08:37:07.432Z,41.40
2017-09-05T08:39:38.490Z,40.20
2017-09-05T08:42:08.098Z,38.90
2017-09-05T08:44:36.928Z,41.40
2017-09-05T08:47:06.090Z,43.40
2017-09-05T08:49:35.164Z,43.80
2017-09-05T08:52:04.423Z,43.60
2017-09-05T08:54:33.515Z,45.10
2017-09-05T08:57:02.508Z,46.70
2017-09-05T08:59:32.688Z,49.70
2017-09-05T09:02:01.569Z,52.20
2017-09-05T09:04:31.941Z,51.50
2017-09-05T09:07:01.143Z,51.70
2017-09-05T09:09:30.236Z,50.90
2017-09-05T09:12:00.415Z,52.30
2017-09-05T09:14:30.657Z,53.70
2017-09-05T09:16:59.623Z,53.60
2017-09-05T09:19:29.230Z,53.80
2017-09-05T09:21:58.340Z,53.70
2017-09-05T09:24:27.444Z,53.00
2017-09-05T09:26:56.585Z,53.20
2017-09-05T09:29:25.632Z,53.30
2017-09-05T09:31:54.580Z,52.90
2017-09-05T09:34:23.618Z,51.70
2017-09-05T09:36:54.051Z,51.80
2017-09-05T09:39:23.026Z,51.60
2017-09-05T09:41:52.133Z,52.20
2017-09-05T09:44:21.198Z,52.70
2017-09-05T09:46:50.899Z,52.70
2017-09-05T09:49:20.633Z,52.60
2017-09-05T09:51:50.303Z,51.90
2017-09-05T09:54:20.304Z,51.20
2017-09-05T09:56:50.785Z,51.20
2017-09-05T09:59:20.193Z,53.20
2017-09-05T10:01:49.772Z,54.20
2017-09-05T10:04:18.658Z,54.30
2017-09-05T10:06:47.761Z,54.60
2017-09-05T10:09:16.848Z,53.90
2017-09-05T10:11:46.327Z,52.60
2017-09-05T10:14:15.482Z,53.40
2017-09-05T10:16:44.578Z,55.00
2017-09-05T10:19:13.492Z,54.40
2017-09-05T10:21:43.405Z,54.40
2017-09-05T10:24:12.275Z,55.30
2017-09-05T10:26:41.169Z,55.90
2017-09-05T10:29:10.488Z,56.10
2017-09-05T10:31:39.975Z,55.50
2017-09-05T10:34:09.030Z,55.50
2017-09-05T10:36:37.917Z,55.10
2017-09-05T10:39:07.191Z,54.20
2017-09-05T10:41:36.370Z,54.50
2017-09-05T10:44:06.499Z,55.30
2017-09-05T10:46:35.539Z,57.40
2017-09-05T10:49:05.435Z,57.70
2017-09-05T10:51:34.176Z,58.20
2017-09-05T10:54:03.544Z,56.70
2017-09-05T10:56:32.486Z,56.30
2017-09-05T10:59:01.802Z,56.00
2017-09-05T11:01:31.096Z,54.00
2017-09-05T11:04:00.069Z,51.50
2017-09-05T11:06:30.297Z,52.00
2017-09-05T11:09:00.613Z,53.30
2017-09-05T11:11:29.598Z,54.60
2017-09-05T11:13:58.460Z,54.90
2017-09-05T11:16:28.033Z,54.50
2017-09-05T11:18:57.179Z,53.90
2017-09-05T11:21:26.201Z,51.50
2017-09-05T11:23:56.165Z,48.30
2017-09-05T11:26:25.416Z,46.20
2017-09-05T11:28:54.403Z,46.00
2017-09-05T11:31:23.422Z,43.60
2017-09-05T11:33:52.393Z,44.20
2017-09-05T11:36:21.592Z,44.30
2017-09-05T11:38:50.517Z,44.50
2017-09-05T11:41:19.506Z,41.90
2017-09-05T11:43:48.579Z,39.70
2017-09-05T11:46:21.657Z,37.20
2017-09-05T11:48:50.798Z,37.20
2017-09-05T11:51:19.783Z,38.50
2017-09-05T11:53:48.654Z,38.50
2017-09-05T11:56:17.434Z,39.30
2017-09-05T11:58:46.324Z,37.80
2017-09-05T12:01:15.589Z,41.30
2017-09-05T12:03:44.667Z,39.40
2017-09-05T12:06:14.423Z,37.90
2017-09-05T12:08:43.662Z,36.20
2017-09-05T12:11:13.064Z,36.50
2017-09-05T12:13:42.102Z,37.10
2017-09-05T12:16:11.399Z,36.20
2017-09-05T12:18:40.473Z,36.80
2017-09-05T12:21:09.317Z,39.80
2017-09-05T12:23:38.456Z,40.10
2017-09-05T12:26:07.604Z,42.00
2017-09-05T12:28:36.952Z,39.80
2017-09-05T12:31:06.043Z,36.80
2017-09-05T12:33:35.583Z,35.90
2017-09-05T12:36:04.744Z,37.40
2017-09-05T12:38:34.059Z,36.30
2017-09-05T12:41:03.534Z,34.70
2017-09-05T12:43:32.709Z,37.00
2017-09-05T12:46:01.800Z,36.50
2017-09-05T12:48:30.770Z,33.50
2017-09-05T12:51:00.575Z,32.30
2017-09-05T12:53:29.656Z,35.00
2017-09-05T12:55:58.593Z,34.90
2017-09-05T12:58:28.552Z,33.80
2017-09-05T13:00:57.526Z,34.60
2017-09-05T13:03:26.496Z,33.90
2017-09-05T13:05:55.716Z,33.60
2017-09-05T13:08:24.587Z,34.60
2017-09-05T13:10:53.761Z,34.50
2017-09-05T13:13:22.673Z,34.10
2017-09-05T13:15:51.771Z,34.70
2017-09-05T13:18:20.868Z,33.80
2017-09-05T13:20:50.690Z,33.00
2017-09-05T13:23:19.777Z,35.10
2017-09-05T13:25:49.124Z,33.70
2017-09-05T13:28:18.315Z,35.20
2017-09-05T13:30:47.889Z,35.60
2017-09-05T13:33:17.385Z,37.30
2017-09-05T13:35:46.585Z,37.90
2017-09-05T13:38:15.801Z,37.20
2017-09-05T13:40:44.808Z,36.60
2017-09-05T13:43:14.042Z,38.50
2017-09-05T13:45:44.112Z,41.30
2017-09-05T13:48:13.073Z,44.30
2017-09-05T13:50:42.070Z,42.30
2017-09-05T13:53:11.022Z,44.80
2017-09-05T13:55:40.718Z,43.70
2017-09-05T13:58:10.500Z,43.00
2017-09-05T14:00:39.492Z,44.60
2017-09-05T14:03:08.788Z,45.30
2017-09-05T14:05:39.028Z,45.10
2017-09-05T14:08:09.340Z,46.30
2017-09-05T14:10:38.742Z,47.40
2017-09-05T14:13:07.836Z,48.10
2017-09-05T14:15:37.261Z,48.70
2017-09-05T14:18:06.333Z,47.70
2017-09-05T14:20:35.806Z,46.80
2017-09-05T14:23:05.140Z,48.10
2017-09-05T14:25:34.134Z,47.90
2017-09-05T14:28:03.506Z,48.10
2017-09-05T14:30:32.798Z,48.20
2017-09-05T14:33:02.758Z,48.30
2017-09-05T14:35:33.088Z,49.40
2017-09-05T14:38:01.940Z,49.10
2017-09-05T14:40:31.330Z,49.60
2017-09-05T14:43:01.246Z,52.00
2017-09-05T14:45:31.432Z,49.60
2017-09-05T14:48:07.844Z,50.10
2017-09-05T14:50:37.354Z,49.20
2017-09-05T14:53:09.001Z,48.70
2017-09-05T14:55:39.724Z,49.50
2017-09-05T14:58:08.968Z,50.80
2017-09-05T15:00:38.110Z,52.00
2017-09-05T15:03:06.960Z,50.80
2017-09-05T15:05:36.875Z,51.40
2017-09-05T15:08:06.201Z,52.40
2017-09-05T15:10:35.194Z,51.90
2017-09-05T15:13:05.963Z,51.30
2017-09-05T15:15:35.372Z,52.30
2017-09-05T15:18:04.469Z,52.80
2017-09-05T15:20:33.567Z,50.80
2017-09-05T15:23:03.171Z,52.10
2017-09-05T15:25:32.201Z,53.80
2017-09-05T15:28:01.310Z,53.90
2017-09-05T15:30:30.193Z,54.90
2017-09-05T15:33:02.481Z,54.80
2017-09-05T15:35:33.265Z,55.20
2017-09-05T15:38:03.083Z,54.90
2017-09-05T15:40:35.783Z,53.80
2017-09-05T15:43:05.704Z,53.80
2017-09-05T15:45:36.337Z,54.50
2017-09-05T15:48:05.935Z,53.40
2017-09-05T15:50:35.752Z,55.30
2017-09-05T15:53:05.536Z,55.90
2017-09-05T15:55:35.445Z,55.40
2017-09-05T15:58:05.736Z,55.50
2017-09-05T16:00:35.004Z,55.50
2017-09-05T16:03:04.454Z,55.60
2017-09-05T16:05:33.807Z,55.90
2017-09-05T16:08:03.122Z,55.10
2017-09-05T16:10:32.960Z,55.30
2017-09-05T16:13:02.041Z,55.90
2017-09-05T16:15:31.460Z,56.40
2017-09-05T16:18:00.889Z,56.60
2017-09-05T16:20:30.238Z,56.40
2017-09-05T16:22:59.933Z,57.00
2017-09-05T16:25:29.207Z,57.00
2017-09-05T16:27:58.338Z,57.10
2017-09-05T16:30:27.450Z,58.10
2017-09-05T16:32:58.078Z,58.00
2017-09-05T16:35:28.354Z,57.90
2017-09-05T16:37:58.075Z,57.40
2017-09-05T16:40:27.418Z,56.10
2017-09-05T16:42:57.708Z,55.90
2017-09-05T16:45:26.822Z,55.40
2017-09-05T16:47:55.950Z,57.00
2017-09-05T16:50:26.499Z,58.10
2017-09-05T16:52:56.702Z,59.60
2017-09-05T16:55:26.313Z,61.20
2017-09-05T16:57:56.442Z,60.90
2017-09-05T17:00:25.638Z,60.50
2017-09-05T17:02:55.467Z,60.60
2017-09-05T17:05:25.383Z,61.30
2017-09-05T17:07:55.031Z,61.10
2017-09-05T17:10:24.524Z,61.60
2017-09-05T17:12:54.144Z,62.80
2017-09-05T17:15:23.516Z,63.60
2017-09-05T17:17:53.668Z,64.10
2017-09-05T17:20:23.021Z,64.30
2017-09-05T17:22:52.936Z,63.90
2017-09-05T17:25:22.830Z,63.60
2017-09-05T17:27:52.402Z,63.60
2017-09-05T17:30:21.491Z,64.50
2017-09-05T17:32:51.194Z,64.60
2017-09-05T17:35:20.355Z,64.90
2017-09-05T17:37:49.401Z,65.20
2017-09-05T17:40:19.435Z,65.10
2017-09-05T17:42:48.759Z,65.00
2017-09-05T17:45:18.326Z,65.70
2017-09-05T17:47:51.743Z,65.60
2017-09-05T17:50:25.847Z,65.90
2017-09-05T17:53:02.090Z,65.60
2017-09-05T17:55:40.503Z,65.40
2017-09-05T17:58:13.017Z,66.10
2017-09-05T18:00:42.499Z,66.00
2017-09-05T18:03:13.906Z,65.60
2017-09-05T18:05:43.036Z,67.00
2017-09-05T18:08:13.258Z,66.90
2017-09-05T18:10:42.497Z,67.10
2017-09-05T18:13:11.859Z,66.90
2017-09-05T18:15:40.977Z,66.70
2017-09-05T18:18:10.261Z,66.90
2017-09-05T18:20:39.370Z,67.20
2017-09-05T18:23:08.645Z,67.60
2017-09-05T18:25:37.858Z,68.10
2017-09-05T18:28:07.580Z,68.30
2017-09-05T18:30:36.776Z,68.40
2017-09-05T18:33:05.940Z,68.30
2017-09-05T18:35:35.378Z,68.10
2017-09-05T18:38:04.670Z,68.60
2017-09-05T18:40:35.101Z,69.10
2017-09-05T18:43:05.088Z,69.00
2017-09-05T18:45:34.489Z,69.40
2017-09-05T18:48:03.519Z,69.80
2017-09-05T18:50:33.634Z,70.10
2017-09-05T18:53:04.299Z,70.10
2017-09-05T18:55:34.275Z,69.80
2017-09-05T18:58:04.610Z,69.90
2017-09-05T19:00:34.251Z,70.10
2017-09-05T19:03:04.023Z,70.90
2017-09-05T19:05:33.940Z,70.80
2017-09-05T19:08:03.050Z,70.70
2017-09-05T19:10:32.574Z,70.80
2017-09-05T19:13:02.430Z,70.90
2017-09-05T19:15:31.847Z,70.90
2017-09-05T19:18:00.922Z,70.90
2017-09-05T19:20:33.939Z,71.00
2017-09-05T19:23:05.154Z,70.80
2017-09-05T19:25:34.358Z,71.00
2017-09-05T19:28:05.360Z,70.90
2017-09-05T19:30:34.801Z,70.90
2017-09-05T19:33:03.722Z,70.80
2017-09-05T19:35:32.771Z,70.80
2017-09-05T19:38:02.979Z,70.50
2017-09-05T19:40:31.998Z,70.00
2017-09-05T19:43:02.326Z,69.90
2017-09-05T19:45:32.277Z,69.80
2017-09-05T19:48:02.794Z,69.90
2017-09-05T19:50:32.727Z,69.90
2017-09-05T19:53:06.823Z,69.60
2017-09-05T19:55:37.241Z,69.70
2017-09-05T19:58:08.363Z,70.00
2017-09-05T20:00:38.852Z,69.50
2017-09-05T20:03:14.276Z,69.40
2017-09-05T20:05:49.447Z,69.40
2017-09-05T20:08:20.295Z,69.30
2017-09-05T20:10:50.183Z,69.20
2017-09-05T20:13:19.154Z,69.10
2017-09-05T20:15:47.975Z,69.00
2017-09-05T20:18:17.058Z,69.00
2017-09-05T20:20:46.642Z,68.90
2017-09-05T20:23:15.552Z,68.70
2017-09-05T20:25:44.443Z,68.70
2017-09-05T20:28:18.789Z,69.00
2017-09-05T20:30:50.249Z,69.30
2017-09-05T20:33:19.613Z,69.30
2017-09-05T20:35:48.902Z,69.20
2017-09-05T20:38:21.048Z,69.00
2017-09-05T20:40:51.853Z,69.90
2017-09-05T20:43:20.958Z,69.20
2017-09-05T20:45:50.152Z,69.40
2017-09-05T20:48:19.094Z,69.40
2017-09-05T20:50:49.995Z,69.40
2017-09-05T20:53:19.453Z,69.30
2017-09-05T20:55:48.355Z,69.70
2017-09-05T20:58:17.356Z,69.40
2017-09-05T21:00:46.245Z,69.20
2017-09-05T21:03:16.910Z,69.30
2017-09-05T21:05:47.182Z,69.20
2017-09-05T21:08:16.670Z,68.70
2017-09-05T21:10:47.071Z,68.30
2017-09-05T21:13:17.777Z,68.80
2017-09-05T21:15:47.586Z,68.30
2017-09-05T21:18:16.405Z,69.40
2017-09-05T21:20:45.326Z,69.80
2017-09-05T21:23:14.285Z,70.00
2017-09-05T21:25:43.092Z,70.10
2017-09-05T21:28:11.803Z,70.30
2017-09-05T21:30:54.789Z,70.20
2017-09-05T21:33:30.459Z,70.20
2017-09-05T21:36:00.884Z,70.20
2017-09-05T21:38:30.246Z,69.80
2017-09-05T21:40:59.322Z,69.40
2017-09-05T21:43:28.266Z,69.40
2017-09-05T21:45:57.321Z,69.60
2017-09-05T21:48:26.244Z,69.30
2017-09-05T21:50:56.739Z,69.30
2017-09-05T21:53:26.169Z,69.20
2017-09-05T21:55:55.093Z,68.80
2017-09-05T21:58:24.189Z,68.80
2017-09-05T22:00:58.064Z,68.70
2017-09-05T22:03:27.420Z,68.50
2017-09-05T22:05:56.536Z,68.50
2017-09-05T22:08:26.539Z,68.40
2017-09-05T22:10:55.497Z,68.10
2017-09-05T22:13:24.581Z,68.00
2017-09-05T22:15:54.832Z,68.40
2017-09-05T22:18:29.373Z,68.30
2017-09-05T22:21:03.887Z,68.60
2017-09-05T22:23:33.373Z,68.40
2017-09-05T22:26:08.410Z,68.60
2017-09-05T22:28:43.695Z,68.70
2017-09-05T22:31:12.541Z,68.60
2017-09-05T22:33:41.640Z,69.00
2017-09-05T22:36:11.506Z,69.10
2017-09-05T22:38:40.444Z,69.30
2017-09-05T22:41:09.727Z,69.40
2017-09-05T22:43:38.633Z,69.30
2017-09-05T22:46:07.934Z,69.30
2017-09-05T22:48:37.848Z,69.50
2017-09-05T22:51:07.771Z,69.40
2017-09-05T22:53:36.555Z,69.70
2017-09-05T22:56:05.561Z,69.80
2017-09-05T22:58:34.746Z,69.80
2017-09-05T23:01:03.640Z,69.90
2017-09-05T23:03:32.867Z,70.20
2017-09-05T23:06:01.828Z,70.10
2017-09-05T23:08:30.720Z,69.60
2017-09-05T23:10:59.817Z,69.50
2017-09-05T23:13:28.707Z,69.70
2017-09-05T23:15:58.416Z,69.20
2017-09-05T23:18:28.125Z,69.50
2017-09-05T23:20:57.426Z,69.30
2017-09-05T23:23:26.316Z,68.90
2017-09-05T23:25:55.718Z,69.30
2017-09-05T23:28:25.021Z,69.10
2017-09-05T23:30:54.138Z,69.00
2017-09-05T23:33:23.735Z,69.20
2017-09-05T23:35:52.821Z,68.90
2017-09-05T23:38:22.422Z,69.30
2017-09-05T23:40:51.221Z,69.10
2017-09-05T23:43:20.540Z,69.30
2017-09-05T23:45:49.482Z,69.80
2017-09-05T23:48:18.606Z,69.40
2017-09-05T23:50:47.867Z,69.70
2017-09-05T23:53:16.798Z,70.30
2017-09-05T23:55:46.075Z,70.50
2017-09-05T23:58:15.539Z,71.20
